sensor_id;sensor_type;location;lat;lon;timestamp;temperature;humidity
23633;DHT22;11993;48.748;9.166;2024-03-22T00:00:57;12.10;70.30
23633;DHT22;11993;48.748;9.166;2024-03-22T00:03:22;12.00;70.70
23633;DHT22;11993;48.748;9.166;2024-03-22T00:05:48;12.00;70.80
23633;DHT22;11993;48.748;9.166;2024-03-22T00:08:13;12.10;70.40
23633;DHT22;11993;48.748;9.166;2024-03-22T00:10:39;12.10;70.60
23633;DHT22;11993;48.748;9.166;2024-03-22T00:13:04;11.90;71.00
23633;DHT22;11993;48.748;9.166;2024-03-22T00:15:30;11.90;71.00
23633;DHT22;11993;48.748;9.166;2024-03-22T00:17:55;11.80;71.00
23633;DHT22;11993;48.748;9.166;2024-03-22T00:20:21;11.70;71.20
23633;DHT22;11993;48.748;9.166;2024-03-22T00:22:46;11.70;71.50
23633;DHT22;11993;48.748;9.166;2024-03-22T00:25:12;11.60;71.50
23633;DHT22;11993;48.748;9.166;2024-03-22T00:27:37;11.60;71.50
23633;DHT22;11993;48.748;9.166;2024-03-22T00:30:03;11.50;71.70
23633;DHT22;11993;48.748;9.166;2024-03-22T00:32:29;11.60;71.50
23633;DHT22;11993;48.748;9.166;2024-03-22T00:34:55;11.40;72.00
23633;DHT22;11993;48.748;9.166;2024-03-22T00:37:20;11.40;72.10
23633;DHT22;11993;48.748;9.166;2024-03-22T00:39:46;11.20;72.40
23633;DHT22;11993;48.748;9.166;2024-03-22T00:42:11;11.10;72.80
23633;DHT22;11993;48.748;9.166;2024-03-22T00:44:37;11.20;72.80
23633;DHT22;11993;48.748;9.166;2024-03-22T00:47:02;11.20;72.50
23633;DHT22;11993;48.748;9.166;2024-03-22T00:49:29;11.10;72.80
23633;DHT22;11993;48.748;9.166;2024-03-22T00:51:54;11.10;72.30
23633;DHT22;11993;48.748;9.166;2024-03-22T00:54:22;11.20;72.40
23633;DHT22;11993;48.748;9.166;2024-03-22T00:56:47;11.10;72.50
23633;DHT22;11993;48.748;9.166;2024-03-22T00:59:13;11.10;72.70
23633;DHT22;11993;48.748;9.166;2024-03-22T01:01:38;11.10;72.80
23633;DHT22;11993;48.748;9.166;2024-03-22T01:04:04;11.00;72.60
23633;DHT22;11993;48.748;9.166;2024-03-22T01:06:29;10.90;73.30
23633;DHT22;11993;48.748;9.166;2024-03-22T01:08:55;10.80;73.50
23633;DHT22;11993;48.748;9.166;2024-03-22T01:11:20;10.70;73.70
23633;DHT22;11993;48.748;9.166;2024-03-22T01:13:46;10.60;73.90
23633;DHT22;11993;48.748;9.166;2024-03-22T01:16:12;10.40;74.70
23633;DHT22;11993;48.748;9.166;2024-03-22T01:18:37;10.50;74.50
23633;DHT22;11993;48.748;9.166;2024-03-22T01:21:03;10.40;75.00
23633;DHT22;11993;48.748;9.166;2024-03-22T01:23:29;10.30;75.20
23633;DHT22;11993;48.748;9.166;2024-03-22T01:25:54;10.20;75.60
23633;DHT22;11993;48.748;9.166;2024-03-22T01:28:21;10.10;75.80
23633;DHT22;11993;48.748;9.166;2024-03-22T01:30:46;10.10;76.20
23633;DHT22;11993;48.748;9.166;2024-03-22T01:33:12;9.80;76.30
23633;DHT22;11993;48.748;9.166;2024-03-22T01:35:38;9.80;76.50
23633;DHT22;11993;48.748;9.166;2024-03-22T01:38:03;9.70;76.50
23633;DHT22;11993;48.748;9.166;2024-03-22T01:40:29;10.00;75.80
23633;DHT22;11993;48.748;9.166;2024-03-22T01:42:58;10.00;75.90
23633;DHT22;11993;48.748;9.166;2024-03-22T01:45:24;10.10;75.60
23633;DHT22;11993;48.748;9.166;2024-03-22T01:47:53;10.10;75.10
23633;DHT22;11993;48.748;9.166;2024-03-22T01:50:23;10.10;74.40
23633;DHT22;11993;48.748;9.166;2024-03-22T01:52:48;10.00;74.60
23633;DHT22;11993;48.748;9.166;2024-03-22T01:55:14;10.00;74.70
23633;DHT22;11993;48.748;9.166;2024-03-22T01:57:40;10.00;74.50
23633;DHT22;11993;48.748;9.166;2024-03-22T02:00:06;10.10;74.40
23633;DHT22;11993;48.748;9.166;2024-03-22T02:02:34;10.00;74.10
23633;DHT22;11993;48.748;9.166;2024-03-22T02:05:05;9.70;75.20
23633;DHT22;11993;48.748;9.166;2024-03-22T02:07:36;10.00;74.90
23633;DHT22;11993;48.748;9.166;2024-03-22T02:10:02;9.90;74.60
23633;DHT22;11993;48.748;9.166;2024-03-22T02:12:27;9.70;75.20
23633;DHT22;11993;48.748;9.166;2024-03-22T02:14:53;9.90;74.90
23633;DHT22;11993;48.748;9.166;2024-03-22T02:17:18;9.90;75.00
23633;DHT22;11993;48.748;9.166;2024-03-22T02:19:44;9.90;75.20
23633;DHT22;11993;48.748;9.166;2024-03-22T02:22:09;9.90;75.10
23633;DHT22;11993;48.748;9.166;2024-03-22T02:24:35;9.80;75.30
23633;DHT22;11993;48.748;9.166;2024-03-22T02:27:00;9.60;75.60
23633;DHT22;11993;48.748;9.166;2024-03-22T02:29:26;9.60;75.70
23633;DHT22;11993;48.748;9.166;2024-03-22T02:31:51;9.70;75.80
23633;DHT22;11993;48.748;9.166;2024-03-22T02:34:17;9.70;75.60
23633;DHT22;11993;48.748;9.166;2024-03-22T02:36:42;9.90;75.30
23633;DHT22;11993;48.748;9.166;2024-03-22T02:39:08;9.70;75.40
23633;DHT22;11993;48.748;9.166;2024-03-22T02:41:33;9.70;75.20
23633;DHT22;11993;48.748;9.166;2024-03-22T02:43:59;9.50;76.00
23633;DHT22;11993;48.748;9.166;2024-03-22T02:46:24;9.50;75.80
23633;DHT22;11993;48.748;9.166;2024-03-22T02:48:50;9.60;76.00
23633;DHT22;11993;48.748;9.166;2024-03-22T02:51:15;9.60;76.10
23633;DHT22;11993;48.748;9.166;2024-03-22T02:53:41;9.30;76.50
23633;DHT22;11993;48.748;9.166;2024-03-22T02:56:06;9.40;76.80
23633;DHT22;11993;48.748;9.166;2024-03-22T02:58:32;9.50;76.20
23633;DHT22;11993;48.748;9.166;2024-03-22T03:01:00;9.40;76.60
23633;DHT22;11993;48.748;9.166;2024-03-22T03:03:28;9.10;77.70
23633;DHT22;11993;48.748;9.166;2024-03-22T03:05:53;9.20;77.30
23633;DHT22;11993;48.748;9.166;2024-03-22T03:08:19;9.10;78.00
23633;DHT22;11993;48.748;9.166;2024-03-22T03:10:44;9.00;78.30
23633;DHT22;11993;48.748;9.166;2024-03-22T03:13:11;9.00;78.50
23633;DHT22;11993;48.748;9.166;2024-03-22T03:15:36;9.10;77.90
23633;DHT22;11993;48.748;9.166;2024-03-22T03:18:02;9.10;77.80
23633;DHT22;11993;48.748;9.166;2024-03-22T03:20:27;9.20;77.70
23633;DHT22;11993;48.748;9.166;2024-03-22T03:22:53;9.10;77.80
23633;DHT22;11993;48.748;9.166;2024-03-22T03:25:18;9.00;78.10
23633;DHT22;11993;48.748;9.166;2024-03-22T03:27:44;8.80;78.50
23633;DHT22;11993;48.748;9.166;2024-03-22T03:30:10;8.80;78.40
23633;DHT22;11993;48.748;9.166;2024-03-22T03:32:35;8.80;78.90
23633;DHT22;11993;48.748;9.166;2024-03-22T03:35:01;8.80;78.70
23633;DHT22;11993;48.748;9.166;2024-03-22T03:37:26;8.90;78.70
23633;DHT22;11993;48.748;9.166;2024-03-22T03:39:52;9.00;78.20
23633;DHT22;11993;48.748;9.166;2024-03-22T03:42:17;8.90;78.60
23633;DHT22;11993;48.748;9.166;2024-03-22T03:44:43;8.80;78.80
23633;DHT22;11993;48.748;9.166;2024-03-22T03:47:08;8.70;79.30
23633;DHT22;11993;48.748;9.166;2024-03-22T03:49:34;8.80;78.90
23633;DHT22;11993;48.748;9.166;2024-03-22T03:52:00;8.80;78.70
23633;DHT22;11993;48.748;9.166;2024-03-22T03:54:25;8.90;78.60
23633;DHT22;11993;48.748;9.166;2024-03-22T03:56:51;8.70;79.20
23633;DHT22;11993;48.748;9.166;2024-03-22T03:59:17;8.70;79.20
23633;DHT22;11993;48.748;9.166;2024-03-22T04:01:43;8.90;78.90
23633;DHT22;11993;48.748;9.166;2024-03-22T04:04:08;8.70;79.30
23633;DHT22;11993;48.748;9.166;2024-03-22T04:06:34;8.80;79.40
23633;DHT22;11993;48.748;9.166;2024-03-22T04:08:59;8.70;79.30
23633;DHT22;11993;48.748;9.166;2024-03-22T04:11:26;8.80;79.10
23633;DHT22;11993;48.748;9.166;2024-03-22T04:13:51;9.00;78.90
23633;DHT22;11993;48.748;9.166;2024-03-22T04:16:17;8.90;78.90
23633;DHT22;11993;48.748;9.166;2024-03-22T04:18:42;8.90;78.90
23633;DHT22;11993;48.748;9.166;2024-03-22T04:21:08;8.90;79.20
23633;DHT22;11993;48.748;9.166;2024-03-22T04:23:33;8.90;78.90
23633;DHT22;11993;48.748;9.166;2024-03-22T04:26:00;8.80;78.70
23633;DHT22;11993;48.748;9.166;2024-03-22T04:28:27;8.90;78.80
23633;DHT22;11993;48.748;9.166;2024-03-22T04:31:04;8.90;79.10
23633;DHT22;11993;48.748;9.166;2024-03-22T04:33:31;8.70;79.40
23633;DHT22;11993;48.748;9.166;2024-03-22T04:35:57;8.80;79.30
23633;DHT22;11993;48.748;9.166;2024-03-22T04:38:26;8.80;79.30
23633;DHT22;11993;48.748;9.166;2024-03-22T04:40:53;9.00;79.00
23633;DHT22;11993;48.748;9.166;2024-03-22T04:43:19;8.80;79.20
23633;DHT22;11993;48.748;9.166;2024-03-22T04:45:46;8.90;79.40
23633;DHT22;11993;48.748;9.166;2024-03-22T04:48:17;9.00;79.20
23633;DHT22;11993;48.748;9.166;2024-03-22T04:50:44;8.90;79.10
23633;DHT22;11993;48.748;9.166;2024-03-22T04:53:09;9.10;78.90
23633;DHT22;11993;48.748;9.166;2024-03-22T04:55:35;9.20;78.50
23633;DHT22;11993;48.748;9.166;2024-03-22T04:58:01;9.20;78.10
23633;DHT22;11993;48.748;9.166;2024-03-22T05:00:29;9.30;78.10
23633;DHT22;11993;48.748;9.166;2024-03-22T05:02:55;9.40;77.80
23633;DHT22;11993;48.748;9.166;2024-03-22T05:05:21;9.20;77.60
23633;DHT22;11993;48.748;9.166;2024-03-22T05:07:47;9.30;77.90
23633;DHT22;11993;48.748;9.166;2024-03-22T05:10:12;9.40;77.30
23633;DHT22;11993;48.748;9.166;2024-03-22T05:12:38;9.50;77.00
23633;DHT22;11993;48.748;9.166;2024-03-22T05:15:05;9.40;77.00
23633;DHT22;11993;48.748;9.166;2024-03-22T05:17:31;9.50;76.80
23633;DHT22;11993;48.748;9.166;2024-03-22T05:19:58;9.50;76.70
23633;DHT22;11993;48.748;9.166;2024-03-22T05:22:23;9.60;76.60
23633;DHT22;11993;48.748;9.166;2024-03-22T05:24:49;9.40;77.10
23633;DHT22;11993;48.748;9.166;2024-03-22T05:27:14;9.50;77.10
23633;DHT22;11993;48.748;9.166;2024-03-22T05:29:40;9.50;76.80
23633;DHT22;11993;48.748;9.166;2024-03-22T05:32:06;9.50;76.60
23633;DHT22;11993;48.748;9.166;2024-03-22T05:34:31;9.60;76.50
23633;DHT22;11993;48.748;9.166;2024-03-22T05:36:57;9.60;76.50
23633;DHT22;11993;48.748;9.166;2024-03-22T05:39:22;9.70;76.30
23633;DHT22;11993;48.748;9.166;2024-03-22T05:41:48;9.70;76.00
23633;DHT22;11993;48.748;9.166;2024-03-22T05:44:13;9.90;75.20
23633;DHT22;11993;48.748;9.166;2024-03-22T05:46:39;10.00;74.90
23633;DHT22;11993;48.748;9.166;2024-03-22T05:49:05;9.90;75.30
23633;DHT22;11993;48.748;9.166;2024-03-22T05:51:30;9.90;75.40
23633;DHT22;11993;48.748;9.166;2024-03-22T05:53:56;9.80;75.40
23633;DHT22;11993;48.748;9.166;2024-03-22T05:56:22;10.00;75.20
23633;DHT22;11993;48.748;9.166;2024-03-22T05:58:48;10.10;75.10
23633;DHT22;11993;48.748;9.166;2024-03-22T06:01:13;10.10;75.10
23633;DHT22;11993;48.748;9.166;2024-03-22T06:03:39;10.00;75.10
23633;DHT22;11993;48.748;9.166;2024-03-22T06:06:05;10.10;74.90
23633;DHT22;11993;48.748;9.166;2024-03-22T06:08:30;10.00;75.50
23633;DHT22;11993;48.748;9.166;2024-03-22T06:11:00;10.00;75.50
23633;DHT22;11993;48.748;9.166;2024-03-22T06:13:26;10.20;75.30
23633;DHT22;11993;48.748;9.166;2024-03-22T06:15:51;10.20;74.90
23633;DHT22;11993;48.748;9.166;2024-03-22T06:18:17;10.10;75.20
23633;DHT22;11993;48.748;9.166;2024-03-22T06:20:43;10.20;74.60
23633;DHT22;11993;48.748;9.166;2024-03-22T06:23:09;10.20;75.00
23633;DHT22;11993;48.748;9.166;2024-03-22T06:25:35;10.40;74.70
23633;DHT22;11993;48.748;9.166;2024-03-22T06:28:01;10.30;74.60
23633;DHT22;11993;48.748;9.166;2024-03-22T06:30:27;10.40;74.50
23633;DHT22;11993;48.748;9.166;2024-03-22T06:32:55;10.20;75.00
23633;DHT22;11993;48.748;9.166;2024-03-22T06:35:21;10.40;73.90
23633;DHT22;11993;48.748;9.166;2024-03-22T06:37:47;10.20;75.10
23633;DHT22;11993;48.748;9.166;2024-03-22T06:40:14;10.20;74.70
23633;DHT22;11993;48.748;9.166;2024-03-22T06:42:40;10.30;74.60
23633;DHT22;11993;48.748;9.166;2024-03-22T06:45:09;10.20;75.40
23633;DHT22;11993;48.748;9.166;2024-03-22T06:47:35;10.60;74.70
23633;DHT22;11993;48.748;9.166;2024-03-22T06:50:00;10.50;74.40
23633;DHT22;11993;48.748;9.166;2024-03-22T06:52:26;10.50;74.50
23633;DHT22;11993;48.748;9.166;2024-03-22T06:54:51;10.60;74.40
23633;DHT22;11993;48.748;9.166;2024-03-22T06:57:18;10.80;73.60
23633;DHT22;11993;48.748;9.166;2024-03-22T06:59:44;10.90;73.50
23633;DHT22;11993;48.748;9.166;2024-03-22T07:02:09;11.20;72.90
23633;DHT22;11993;48.748;9.166;2024-03-22T07:04:35;11.20;72.60
23633;DHT22;11993;48.748;9.166;2024-03-22T07:07:01;11.40;72.20
23633;DHT22;11993;48.748;9.166;2024-03-22T07:09:26;11.60;71.40
23633;DHT22;11993;48.748;9.166;2024-03-22T07:11:55;11.40;71.90
23633;DHT22;11993;48.748;9.166;2024-03-22T07:14:20;11.60;70.80
23633;DHT22;11993;48.748;9.166;2024-03-22T07:16:46;11.80;70.90
23633;DHT22;11993;48.748;9.166;2024-03-22T07:19:11;11.90;70.90
23633;DHT22;11993;48.748;9.166;2024-03-22T07:21:37;12.30;69.60
23633;DHT22;11993;48.748;9.166;2024-03-22T07:24:04;12.20;69.50
23633;DHT22;11993;48.748;9.166;2024-03-22T07:26:30;12.30;69.70
23633;DHT22;11993;48.748;9.166;2024-03-22T07:28:56;12.60;68.60
23633;DHT22;11993;48.748;9.166;2024-03-22T07:31:21;12.80;68.60
23633;DHT22;11993;48.748;9.166;2024-03-22T07:33:47;12.90;67.40
23633;DHT22;11993;48.748;9.166;2024-03-22T07:36:15;12.70;67.60
23633;DHT22;11993;48.748;9.166;2024-03-22T07:38:41;13.20;66.80
23633;DHT22;11993;48.748;9.166;2024-03-22T07:41:07;13.20;66.40
23633;DHT22;11993;48.748;9.166;2024-03-22T07:43:33;13.30;65.90
23633;DHT22;11993;48.748;9.166;2024-03-22T07:45:58;13.00;67.80
23633;DHT22;11993;48.748;9.166;2024-03-22T07:48:24;13.30;66.70
23633;DHT22;11993;48.748;9.166;2024-03-22T07:50:56;13.30;67.10
23633;DHT22;11993;48.748;9.166;2024-03-22T07:53:22;13.60;65.60
23633;DHT22;11993;48.748;9.166;2024-03-22T07:55:48;14.10;65.10
23633;DHT22;11993;48.748;9.166;2024-03-22T07:58:14;13.90;65.00
23633;DHT22;11993;48.748;9.166;2024-03-22T08:00:39;14.20;64.00
23633;DHT22;11993;48.748;9.166;2024-03-22T08:03:16;14.30;64.10
23633;DHT22;11993;48.748;9.166;2024-03-22T08:05:41;14.40;62.70
23633;DHT22;11993;48.748;9.166;2024-03-22T08:08:07;14.70;62.00
23633;DHT22;11993;48.748;9.166;2024-03-22T08:10:33;14.80;61.10
23633;DHT22;11993;48.748;9.166;2024-03-22T08:12:59;14.90;61.70
23633;DHT22;11993;48.748;9.166;2024-03-22T08:15:25;15.20;60.80
23633;DHT22;11993;48.748;9.166;2024-03-22T08:17:52;15.60;59.40
23633;DHT22;11993;48.748;9.166;2024-03-22T08:20:18;15.60;60.10
23633;DHT22;11993;48.748;9.166;2024-03-22T08:22:43;15.70;58.80
23633;DHT22;11993;48.748;9.166;2024-03-22T08:25:09;15.60;59.00
23633;DHT22;11993;48.748;9.166;2024-03-22T08:27:34;15.60;59.10
23633;DHT22;11993;48.748;9.166;2024-03-22T08:30:01;15.90;58.30
23633;DHT22;11993;48.748;9.166;2024-03-22T08:32:26;16.00;59.30
23633;DHT22;11993;48.748;9.166;2024-03-22T08:34:52;16.20;58.60
23633;DHT22;11993;48.748;9.166;2024-03-22T08:37:17;16.00;59.30
23633;DHT22;11993;48.748;9.166;2024-03-22T08:39:43;15.90;59.70
23633;DHT22;11993;48.748;9.166;2024-03-22T08:42:09;16.20;58.60
23633;DHT22;11993;48.748;9.166;2024-03-22T08:44:35;16.40;58.60
23633;DHT22;11993;48.748;9.166;2024-03-22T08:47:01;16.70;55.30
23633;DHT22;11993;48.748;9.166;2024-03-22T08:49:26;17.40;54.70
23633;DHT22;11993;48.748;9.166;2024-03-22T08:51:52;17.40;52.80
23633;DHT22;11993;48.748;9.166;2024-03-22T08:54:17;16.80;54.20
23633;DHT22;11993;48.748;9.166;2024-03-22T08:56:43;17.20;53.30
23633;DHT22;11993;48.748;9.166;2024-03-22T08:59:08;17.60;51.90
23633;DHT22;11993;48.748;9.166;2024-03-22T09:01:34;17.40;51.70
23633;DHT22;11993;48.748;9.166;2024-03-22T09:04:00;17.50;51.10
23633;DHT22;11993;48.748;9.166;2024-03-22T09:06:26;16.90;52.80
23633;DHT22;11993;48.748;9.166;2024-03-22T09:08:51;17.30;53.00
23633;DHT22;11993;48.748;9.166;2024-03-22T09:11:17;17.40;51.00
23633;DHT22;11993;48.748;9.166;2024-03-22T09:13:43;17.30;51.50
23633;DHT22;11993;48.748;9.166;2024-03-22T09:16:15;17.10;50.50
23633;DHT22;11993;48.748;9.166;2024-03-22T09:18:41;16.70;52.30
23633;DHT22;11993;48.748;9.166;2024-03-22T09:21:06;17.00;50.70
23633;DHT22;11993;48.748;9.166;2024-03-22T09:23:34;17.50;50.80
23633;DHT22;11993;48.748;9.166;2024-03-22T09:25:59;17.60;48.90
23633;DHT22;11993;48.748;9.166;2024-03-22T09:28:25;17.30;48.70
23633;DHT22;11993;48.748;9.166;2024-03-22T09:30:51;17.30;45.90
23633;DHT22;11993;48.748;9.166;2024-03-22T09:33:17;17.70;46.60
23633;DHT22;11993;48.748;9.166;2024-03-22T09:35:43;17.90;44.40
23633;DHT22;11993;48.748;9.166;2024-03-22T09:38:09;17.50;45.50
23633;DHT22;11993;48.748;9.166;2024-03-22T09:40:37;18.10;43.10
23633;DHT22;11993;48.748;9.166;2024-03-22T09:43:06;18.50;42.80
23633;DHT22;11993;48.748;9.166;2024-03-22T09:45:32;18.70;43.50
23633;DHT22;11993;48.748;9.166;2024-03-22T09:47:59;19.30;42.10
23633;DHT22;11993;48.748;9.166;2024-03-22T09:50:25;19.80;41.40
23633;DHT22;11993;48.748;9.166;2024-03-22T09:52:56;19.50;40.30
23633;DHT22;11993;48.748;9.166;2024-03-22T09:55:23;19.80;40.60
23633;DHT22;11993;48.748;9.166;2024-03-22T09:57:49;18.60;42.00
23633;DHT22;11993;48.748;9.166;2024-03-22T10:00:19;19.40;41.70
23633;DHT22;11993;48.748;9.166;2024-03-22T10:02:50;20.10;41.70
23633;DHT22;11993;48.748;9.166;2024-03-22T10:05:16;20.50;41.60
23633;DHT22;11993;48.748;9.166;2024-03-22T10:07:43;19.70;41.00
23633;DHT22;11993;48.748;9.166;2024-03-22T10:10:09;19.90;41.30
23633;DHT22;11993;48.748;9.166;2024-03-22T10:12:35;20.40;40.30
23633;DHT22;11993;48.748;9.166;2024-03-22T10:15:01;20.30;40.90
23633;DHT22;11993;48.748;9.166;2024-03-22T10:17:28;19.70;40.70
23633;DHT22;11993;48.748;9.166;2024-03-22T10:19:54;20.00;40.70
23633;DHT22;11993;48.748;9.166;2024-03-22T10:22:20;19.20;42.90
23633;DHT22;11993;48.748;9.166;2024-03-22T10:24:45;19.60;41.30
23633;DHT22;11993;48.748;9.166;2024-03-22T10:27:11;19.30;43.20
23633;DHT22;11993;48.748;9.166;2024-03-22T10:29:37;19.50;43.00
23633;DHT22;11993;48.748;9.166;2024-03-22T10:32:03;19.70;40.80
23633;DHT22;11993;48.748;9.166;2024-03-22T10:34:28;19.30;40.10
23633;DHT22;11993;48.748;9.166;2024-03-22T10:36:59;19.80;40.40
23633;DHT22;11993;48.748;9.166;2024-03-22T10:39:26;19.80;39.60
23633;DHT22;11993;48.748;9.166;2024-03-22T10:41:52;20.20;40.90
23633;DHT22;11993;48.748;9.166;2024-03-22T10:44:18;19.90;41.30
23633;DHT22;11993;48.748;9.166;2024-03-22T10:46:48;20.20;40.50
23633;DHT22;11993;48.748;9.166;2024-03-22T10:49:16;19.50;42.10
23633;DHT22;11993;48.748;9.166;2024-03-22T10:51:51;20.10;41.90
23633;DHT22;11993;48.748;9.166;2024-03-22T10:54:20;20.30;41.40
23633;DHT22;11993;48.748;9.166;2024-03-22T10:56:47;21.10;39.40
23633;DHT22;11993;48.748;9.166;2024-03-22T10:59:18;21.10;38.30
23633;DHT22;11993;48.748;9.166;2024-03-22T11:01:46;21.20;39.20
23633;DHT22;11993;48.748;9.166;2024-03-22T11:04:11;21.10;40.40
23633;DHT22;11993;48.748;9.166;2024-03-22T11:06:37;21.90;38.50
23633;DHT22;11993;48.748;9.166;2024-03-22T11:09:03;21.60;38.30
23633;DHT22;11993;48.748;9.166;2024-03-22T11:11:31;21.60;38.50
23633;DHT22;11993;48.748;9.166;2024-03-22T11:14:02;22.40;37.90
23633;DHT22;11993;48.748;9.166;2024-03-22T11:16:28;21.40;38.10
23633;DHT22;11993;48.748;9.166;2024-03-22T11:18:55;22.10;37.50
23633;DHT22;11993;48.748;9.166;2024-03-22T11:21:20;21.70;37.60
23633;DHT22;11993;48.748;9.166;2024-03-22T11:23:46;21.10;38.80
23633;DHT22;11993;48.748;9.166;2024-03-22T11:26:12;20.90;39.30
23633;DHT22;11993;48.748;9.166;2024-03-22T11:28:38;21.70;39.50
23633;DHT22;11993;48.748;9.166;2024-03-22T11:31:04;22.00;39.50
23633;DHT22;11993;48.748;9.166;2024-03-22T11:33:32;22.20;34.30
23633;DHT22;11993;48.748;9.166;2024-03-22T11:36:02;21.70;35.20
23633;DHT22;11993;48.748;9.166;2024-03-22T11:38:30;21.60;34.90
23633;DHT22;11993;48.748;9.166;2024-03-22T11:40:57;21.30;36.10
23633;DHT22;11993;48.748;9.166;2024-03-22T11:43:23;22.60;35.10
23633;DHT22;11993;48.748;9.166;2024-03-22T11:45:49;23.50;35.60
23633;DHT22;11993;48.748;9.166;2024-03-22T11:48:14;22.80;33.90
23633;DHT22;11993;48.748;9.166;2024-03-22T11:50:41;22.70;34.80
23633;DHT22;11993;48.748;9.166;2024-03-22T11:53:07;23.00;34.90
23633;DHT22;11993;48.748;9.166;2024-03-22T11:55:36;23.00;35.00
23633;DHT22;11993;48.748;9.166;2024-03-22T11:58:01;22.80;34.80
23633;DHT22;11993;48.748;9.166;2024-03-22T12:00:27;22.30;36.00
23633;DHT22;11993;48.748;9.166;2024-03-22T12:02:53;22.60;35.70
23633;DHT22;11993;48.748;9.166;2024-03-22T12:05:20;23.10;34.90
23633;DHT22;11993;48.748;9.166;2024-03-22T12:07:46;22.70;34.60
23633;DHT22;11993;48.748;9.166;2024-03-22T12:10:12;22.80;34.30
23633;DHT22;11993;48.748;9.166;2024-03-22T12:12:37;22.70;34.90
23633;DHT22;11993;48.748;9.166;2024-03-22T12:15:04;21.90;35.20
23633;DHT22;11993;48.748;9.166;2024-03-22T12:17:29;21.80;36.00
23633;DHT22;11993;48.748;9.166;2024-03-22T12:19:55;21.30;34.90
23633;DHT22;11993;48.748;9.166;2024-03-22T12:22:22;21.10;35.60
23633;DHT22;11993;48.748;9.166;2024-03-22T12:24:47;21.10;35.60
23633;DHT22;11993;48.748;9.166;2024-03-22T12:27:13;20.90;36.80
23633;DHT22;11993;48.748;9.166;2024-03-22T12:29:39;20.70;37.00
23633;DHT22;11993;48.748;9.166;2024-03-22T12:32:04;20.80;36.70
23633;DHT22;11993;48.748;9.166;2024-03-22T12:34:31;21.10;36.60
23633;DHT22;11993;48.748;9.166;2024-03-22T12:36:58;20.90;37.20
23633;DHT22;11993;48.748;9.166;2024-03-22T12:39:30;20.90;37.40
23633;DHT22;11993;48.748;9.166;2024-03-22T12:41:57;20.10;38.50
23633;DHT22;11993;48.748;9.166;2024-03-22T12:44:23;20.30;38.50
23633;DHT22;11993;48.748;9.166;2024-03-22T12:46:49;20.60;38.10
23633;DHT22;11993;48.748;9.166;2024-03-22T12:49:16;20.60;38.10
23633;DHT22;11993;48.748;9.166;2024-03-22T12:51:42;20.60;37.60
23633;DHT22;11993;48.748;9.166;2024-03-22T12:54:08;21.40;37.50
23633;DHT22;11993;48.748;9.166;2024-03-22T12:56:34;21.90;36.30
23633;DHT22;11993;48.748;9.166;2024-03-22T12:59:00;21.90;37.40
23633;DHT22;11993;48.748;9.166;2024-03-22T13:01:25;21.90;36.30
23633;DHT22;11993;48.748;9.166;2024-03-22T13:03:51;21.50;37.10
23633;DHT22;11993;48.748;9.166;2024-03-22T13:06:17;21.60;37.50
23633;DHT22;11993;48.748;9.166;2024-03-22T13:08:42;22.10;37.20
23633;DHT22;11993;48.748;9.166;2024-03-22T13:11:08;22.30;36.70
23633;DHT22;11993;48.748;9.166;2024-03-22T13:13:36;21.60;39.20
23633;DHT22;11993;48.748;9.166;2024-03-22T13:16:02;20.80;38.70
23633;DHT22;11993;48.748;9.166;2024-03-22T13:18:28;20.60;39.80
23633;DHT22;11993;48.748;9.166;2024-03-22T13:20:54;20.70;40.40
23633;DHT22;11993;48.748;9.166;2024-03-22T13:23:20;20.60;40.70
23633;DHT22;11993;48.748;9.166;2024-03-22T13:25:45;20.60;40.60
23633;DHT22;11993;48.748;9.166;2024-03-22T13:28:11;20.70;40.20
23633;DHT22;11993;48.748;9.166;2024-03-22T13:30:37;21.10;40.20
23633;DHT22;11993;48.748;9.166;2024-03-22T13:33:03;21.30;40.20
23633;DHT22;11993;48.748;9.166;2024-03-22T13:35:29;21.60;39.80
23633;DHT22;11993;48.748;9.166;2024-03-22T13:37:54;21.60;39.20
23633;DHT22;11993;48.748;9.166;2024-03-22T13:40:21;21.30;39.40
23633;DHT22;11993;48.748;9.166;2024-03-22T13:42:46;21.10;39.90
23633;DHT22;11993;48.748;9.166;2024-03-22T13:45:12;21.20;39.50
23633;DHT22;11993;48.748;9.166;2024-03-22T13:47:38;21.30;39.20
23633;DHT22;11993;48.748;9.166;2024-03-22T13:50:06;21.70;39.00
23633;DHT22;11993;48.748;9.166;2024-03-22T13:52:33;22.10;38.10
23633;DHT22;11993;48.748;9.166;2024-03-22T13:54:59;22.20;37.40
23633;DHT22;11993;48.748;9.166;2024-03-22T13:57:26;22.80;38.10
23633;DHT22;11993;48.748;9.166;2024-03-22T13:59:52;23.10;36.80
23633;DHT22;11993;48.748;9.166;2024-03-22T14:02:18;22.80;37.10
23633;DHT22;11993;48.748;9.166;2024-03-22T14:04:45;22.80;36.80
23633;DHT22;11993;48.748;9.166;2024-03-22T14:07:10;22.90;37.00
23633;DHT22;11993;48.748;9.166;2024-03-22T14:09:36;23.30;36.80
23633;DHT22;11993;48.748;9.166;2024-03-22T14:12:02;23.30;36.50
23633;DHT22;11993;48.748;9.166;2024-03-22T14:14:28;23.20;37.00
23633;DHT22;11993;48.748;9.166;2024-03-22T14:16:54;22.90;36.80
23633;DHT22;11993;48.748;9.166;2024-03-22T14:19:19;22.40;38.00
23633;DHT22;11993;48.748;9.166;2024-03-22T14:21:45;22.30;38.60
23633;DHT22;11993;48.748;9.166;2024-03-22T14:24:13;21.70;40.30
23633;DHT22;11993;48.748;9.166;2024-03-22T14:26:39;21.70;40.70
23633;DHT22;11993;48.748;9.166;2024-03-22T14:29:11;21.10;41.00
23633;DHT22;11993;48.748;9.166;2024-03-22T14:31:37;20.80;42.60
23633;DHT22;11993;48.748;9.166;2024-03-22T14:34:03;20.70;42.80
23633;DHT22;11993;48.748;9.166;2024-03-22T14:36:29;20.60;43.30
23633;DHT22;11993;48.748;9.166;2024-03-22T14:38:54;20.50;43.80
23633;DHT22;11993;48.748;9.166;2024-03-22T14:41:20;20.20;43.50
23633;DHT22;11993;48.748;9.166;2024-03-22T14:43:45;20.10;44.30
23633;DHT22;11993;48.748;9.166;2024-03-22T14:46:11;19.80;44.80
23633;DHT22;11993;48.748;9.166;2024-03-22T14:48:37;19.90;43.80
23633;DHT22;11993;48.748;9.166;2024-03-22T14:51:02;19.60;42.70
23633;DHT22;11993;48.748;9.166;2024-03-22T14:53:28;19.50;42.10
23633;DHT22;11993;48.748;9.166;2024-03-22T14:56:00;19.60;42.60
23633;DHT22;11993;48.748;9.166;2024-03-22T14:58:30;19.40;43.00
23633;DHT22;11993;48.748;9.166;2024-03-22T15:00:57;19.50;42.30
23633;DHT22;11993;48.748;9.166;2024-03-22T15:03:23;19.60;41.50
23633;DHT22;11993;48.748;9.166;2024-03-22T15:05:50;19.50;41.30
23633;DHT22;11993;48.748;9.166;2024-03-22T15:08:16;19.60;40.70
23633;DHT22;11993;48.748;9.166;2024-03-22T15:10:41;19.10;42.30
23633;DHT22;11993;48.748;9.166;2024-03-22T15:13:07;19.10;42.70
23633;DHT22;11993;48.748;9.166;2024-03-22T15:15:34;19.10;41.50
23633;DHT22;11993;48.748;9.166;2024-03-22T15:18:00;18.90;41.60
23633;DHT22;11993;48.748;9.166;2024-03-22T15:20:25;18.90;40.80
23633;DHT22;11993;48.748;9.166;2024-03-22T15:22:53;18.60;42.90
23633;DHT22;11993;48.748;9.166;2024-03-22T15:25:18;18.60;42.90
23633;DHT22;11993;48.748;9.166;2024-03-22T15:27:44;18.60;42.70